CFB Trenton
CYTR : now visible

Airfield :











YOU CAN JOIN US ON...

 
LOGIN :

Register | Disclaimer

   EN    FR    IT 

 









Legend :    VFR   Marginal VFR   IFR   Intensive IFR   Very Intensive IFR
Visi :
Ceiling :
>= 8 km
>= 3000ft
5 to 8 km
1000 to 3000 ft
1500m to 5 km
500 to 1000 ft
800 to 1500m
200 to 500 ft
< 800m
< 200 ft
Symbols :   Thunderstorms  Fog  Heavy snow  Heavy precipitations  Wind > 20 kt







- Airport Elevation : 283 ft
- IATA code : YTR


CYTR - CFB Trenton

CURRENT METAR :
  • 191600Z CCA 05011G16KT 15SM -SHRA SCT010 OVC045 09/08 A2962 RMK SF3SC5 SLP033

EXPIRED METARs :
  • 191500Z 05013KT 15SM -SHRA FEW010 OVC045 09/08 A2962 RMK SF1SC7 SLP032
  • 191400Z 03010KT 12SM -SHRA FEW010 OVC045 10/08 A2962 RMK SF1SC7 SLP033

TAF AMD TAF CYTR
Valid from the 19 at 15:00 until the 20 at 12:00 UTC


191504Z 1915/2012 04012KT 6SM -RA BR SCT010 OVC040
TEMPO 1915/1924 3SM -RA BR OVC010
BECMG 1918/1920 04018KT
FM200000 04018KT 4SM -RA BR SCT005 OVC008
TEMPO 2000/2008 11/2SM RA BR OVC005
FM200800 04012KT 6SM -DZ BR SCT006 OVC010
TEMPO 2008/2012 2SM -RA -DZ BR OVC006 RMK NXT FCST BY 191800Z
CZYZ FIR / North America



MET'MAP, your aeronautical weather chart ! - Copyright ORBIFLY December 2007 - Disclaimer

ORBIFLY MET'MAP TEAM :

Programming & Development : Alexandra Zaïnal
Concept & Development : Baudouin d'Aumeries
Co-Development & Prog : Marc-Olivier Méhu
Technical & hardware support : Manuel Goepfert

Contact : metmap@orbifly.com




SOURCES & CREDITS :

   NOAA       Earth
Advisory